Time;durP1;ratioP1;P1;durP2;ratioP2;P2;SDS_P1;SDS_P2;PMS_P1;PMS_P2;Temp;Humidity;BMP_temperature;BMP_pressure;BME280_temperature;BME280_humidity;BME280_pressure;Samples;Min_cycle;Max_cycle;Signal;HPM_P1;HPM_P2
2023/04/01 00:00:55;;;;;;;4.65;3.90;;;9.90;99.90;;;;;;5065195;28;20491;-82
2023/04/01 00:03:22;;;;;;;5.80;3.97;;;9.90;99.90;;;;;;5053065;28;20086;-81
2023/04/01 00:05:48;;;;;;;5.72;4.07;;;9.90;99.90;;;;;;5089149;28;20036;-82
2023/04/01 00:08:14;;;;;;;5.82;4.10;;;9.90;99.90;;;;;;5090195;28;20650;-82
2023/04/01 00:10:40;;;;;;;4.63;3.95;;;9.90;99.90;;;;;;5054879;28;20040;-82
2023/04/01 00:13:06;;;;;;;4.97;3.80;;;9.90;99.90;;;;;;5088787;28;20075;-82
2023/04/01 00:15:32;;;;;;;4.82;3.55;;;9.90;99.90;;;;;;5088684;28;20039;-82
2023/04/01 00:17:58;;;;;;;4.82;3.60;;;9.80;99.90;;;;;;5089843;28;20448;-82
2023/04/01 00:20:24;;;;;;;4.80;3.53;;;9.90;99.90;;;;;;5072238;28;20055;-82
2023/04/01 00:22:50;;;;;;;4.45;3.80;;;9.80;99.90;;;;;;5070277;28;20044;-82
2023/04/01 00:25:17;;;;;;;4.45;3.50;;;9.80;99.90;;;;;;5088981;28;20044;-82
2023/04/01 00:28:26;;;;;;;6.90;4.10;;;9.80;99.90;;;;;;5071204;28;20385;-82
2023/04/01 00:30:52;;;;;;;4.57;3.22;;;9.80;99.90;;;;;;5087832;28;20468;-82
2023/04/01 00:33:18;;;;;;;7.03;3.40;;;9.80;99.90;;;;;;5087396;28;20043;-82
2023/04/01 00:35:49;;;;;;;3.08;2.78;;;9.90;99.90;;;;;;5089682;28;20040;-82
2023/04/01 00:38:51;;;;;;;4.95;3.58;;;9.80;99.90;;;;;;5088684;28;20063;-82
2023/04/01 00:41:18;;;;;;;3.80;3.05;;;9.80;99.90;;;;;;5062874;28;20052;-82
2023/04/01 00:43:46;;;;;;;3.35;2.90;;;9.70;99.90;;;;;;5087847;28;20052;-82
2023/04/01 00:46:12;;;;;;;5.05;3.08;;;9.70;99.90;;;;;;5088894;28;20055;-82
2023/04/01 00:49:08;;;;;;;4.55;3.17;;;9.70;99.90;;;;;;5088096;28;20405;-83
2023/04/01 00:51:36;;;;;;;2.78;2.47;;;9.70;99.90;;;;;;5066991;28;20386;-82
2023/04/01 00:54:03;;;;;;;4.50;2.55;;;9.70;99.90;;;;;;5069813;28;20520;-82
2023/04/01 00:56:55;;;;;;;3.70;2.88;;;9.60;99.90;;;;;;5069825;28;20067;-82
2023/04/01 00:59:31;;;;;;;3.30;2.40;;;9.60;99.90;;;;;;5069431;28;20449;-82
2023/04/01 01:01:57;;;;;;;2.08;1.90;;;9.80;99.90;;;;;;5071786;28;20040;-82
2023/04/01 01:04:30;;;;;;;4.55;2.25;;;9.60;99.90;;;;;;5088778;28;20346;-82
2023/04/01 01:07:18;;;;;;;2.33;1.80;;;9.60;99.90;;;;;;5071181;28;20755;-82
2023/04/01 01:10:17;;;;;;;3.58;1.73;;;9.60;99.90;;;;;;5060373;28;20075;-82
2023/04/01 01:12:55;;;;;;;2.45;2.05;;;9.60;99.90;;;;;;5071077;28;20035;-82
2023/04/01 01:15:30;;;;;;;2.28;2.00;;;9.60;99.90;;;;;;5071771;28;20912;-82
2023/04/01 01:18:31;;;;;;;3.78;2.25;;;9.60;99.90;;;;;;5088509;28;20044;-82
2023/04/01 01:21:20;;;;;;;3.75;2.40;;;9.60;99.90;;;;;;5017624;28;20067;-82
2023/04/01 01:24:36;;;;;;;3.55;2.65;;;9.60;99.90;;;;;;5069261;28;20063;-81
2023/04/01 01:27:11;;;;;;;4.50;3.13;;;9.60;99.90;;;;;;5018746;28;20548;-82
2023/04/01 01:30:04;;;;;;;5.00;3.33;;;9.50;99.90;;;;;;5089312;28;20040;-81
2023/04/01 01:33:03;;;;;;;5.25;3.28;;;9.60;99.90;;;;;;5059150;28;20052;-82
2023/04/01 01:35:35;;;;;;;3.83;3.42;;;9.60;99.90;;;;;;5088096;28;20575;-82
2023/04/01 01:38:06;;;;;;;5.18;3.42;;;9.60;99.90;;;;;;5085623;28;20075;-82
2023/04/01 01:40:34;;;;;;;4.97;3.88;;;9.60;99.90;;;;;;5069369;28;20040;-82
2023/04/01 01:43:08;;;;;;;4.20;3.67;;;9.60;99.90;;;;;;5069658;28;20063;-82
2023/04/01 01:45:38;;;;;;;5.70;3.83;;;9.60;99.90;;;;;;5050388;28;20052;-82
2023/04/01 01:48:06;;;;;;;6.70;3.83;;;9.60;99.90;;;;;;5077144;28;20055;-82
2023/04/01 01:50:33;;;;;;;5.45;3.80;;;9.60;99.90;;;;;;5086216;28;20115;-82
2023/04/01 01:53:07;;;;;;;5.43;3.83;;;9.60;99.90;;;;;;5086938;28;20740;-82
2023/04/01 01:55:36;;;;;;;4.47;3.47;;;9.60;99.90;;;;;;5087509;28;20036;-81
2023/04/01 01:58:26;;;;;;;3.85;3.45;;;9.60;99.90;;;;;;5085895;28;20040;-81
2023/04/01 02:01:02;;;;;;;6.30;3.60;;;9.70;99.90;;;;;;5076024;28;20056;-81
2023/04/01 02:03:32;;;;;;;4.22;3.38;;;9.60;99.90;;;;;;5088344;28;20135;-81
2023/04/01 02:06:01;;;;;;;6.72;3.85;;;9.60;99.90;;;;;;5087501;28;20040;-82
2023/04/01 02:08:40;;;;;;;3.83;3.42;;;9.60;99.90;;;;;;5086350;28;20048;-82
2023/04/01 02:11:11;;;;;;;6.53;3.58;;;9.70;99.90;;;;;;5087233;28;20040;-82
2023/04/01 02:13:47;;;;;;;5.00;3.85;;;9.70;99.90;;;;;;5088302;28;20113;-81
2023/04/01 02:16:23;;;;;;;6.30;3.80;;;9.70;99.90;;;;;;5087301;28;20062;-81
2023/04/01 02:18:53;;;;;;;4.13;3.20;;;9.70;99.90;;;;;;5049023;28;20563;-82
2023/04/01 02:21:22;;;;;;;4.68;3.58;;;9.60;99.90;;;;;;5078314;28;20047;-82
2023/04/01 02:26:57;;;;;;;7.68;4.05;;;9.70;99.90;;;;;;5068480;28;20048;-82
2023/04/01 02:29:41;;;;;;;5.68;4.18;;;9.70;99.90;;;;;;5085855;28;20493;-82
2023/04/01 02:32:09;;;;;;;6.10;3.78;;;9.70;99.90;;;;;;5086654;28;20517;-82
2023/04/01 02:34:35;;;;;;;5.05;3.83;;;9.60;99.90;;;;;;5085968;28;20125;-82
2023/04/01 02:37:01;;;;;;;4.93;3.70;;;9.60;99.90;;;;;;5047747;28;20094;-82
2023/04/01 02:39:27;;;;;;;4.38;3.50;;;9.70;99.90;;;;;;5046616;28;20141;-83
2023/04/01 02:41:53;;;;;;;4.45;3.70;;;9.60;99.90;;;;;;5070328;28;20165;-82
2023/04/01 02:44:18;;;;;;;4.93;3.60;;;9.70;99.90;;;;;;5065339;28;20127;-82
2023/04/01 02:46:44;;;;;;;4.57;3.47;;;9.70;99.90;;;;;;5067037;28;20356;-82
2023/04/01 02:49:10;;;;;;;5.30;3.40;;;9.60;99.90;;;;;;5065442;28;20097;-82
2023/04/01 02:51:36;;;;;;;6.93;3.65;;;9.70;99.90;;;;;;5066820;28;20121;-82
2023/04/01 02:54:02;;;;;;;4.20;3.28;;;9.70;99.90;;;;;;5065187;28;20364;-82
2023/04/01 02:56:27;;;;;;;5.13;3.90;;;9.70;99.90;;;;;;5067353;28;20475;-83
2023/04/01 02:58:54;;;;;;;5.93;3.78;;;9.60;99.90;;;;;;5067784;28;20041;-82
2023/04/01 03:01:21;;;;;;;4.60;3.72;;;9.70;99.90;;;;;;5068200;28;20102;-82
2023/04/01 03:03:46;;;;;;;4.85;3.70;;;9.70;99.90;;;;;;5072188;28;20037;-82
2023/04/01 03:06:14;;;;;;;6.30;3.97;;;9.70;99.90;;;;;;5073510;28;20063;-82
2023/04/01 03:08:40;;;;;;;6.22;4.40;;;9.60;99.90;;;;;;5059471;28;20109;-82
2023/04/01 03:11:06;;;;;;;5.97;4.32;;;9.70;99.90;;;;;;5072916;28;20495;-82
2023/04/01 03:13:32;;;;;;;7.78;3.70;;;9.70;99.90;;;;;;5072632;28;20048;-82
2023/04/01 03:15:58;;;;;;;5.13;3.85;;;9.60;99.90;;;;;;5070465;28;20041;-82
2023/04/01 03:18:23;;;;;;;7.22;4.20;;;9.60;99.90;;;;;;5073114;28;20442;-82
2023/04/01 03:20:49;;;;;;;5.60;4.07;;;9.60;99.90;;;;;;5074515;28;20044;-83
2023/04/01 03:23:17;;;;;;;5.95;4.45;;;9.60;99.90;;;;;;5069249;28;20452;-82
2023/04/01 03:25:42;;;;;;;6.03;4.78;;;9.60;99.90;;;;;;5073388;28;20053;-82
2023/04/01 03:28:08;;;;;;;6.72;4.38;;;9.70;99.90;;;;;;5070731;28;20051;-82
2023/04/01 03:30:34;;;;;;;6.47;4.30;;;9.90;99.90;;;;;;5072317;28;20561;-82
2023/04/01 03:33:00;;;;;;;7.07;4.25;;;9.60;99.90;;;;;;5072067;28;20056;-83
2023/04/01 03:35:27;;;;;;;6.28;4.45;;;9.70;99.90;;;;;;5049792;28;20045;-82
2023/04/01 03:37:53;;;;;;;5.03;3.95;;;9.60;99.90;;;;;;5087876;28;20059;-83
2023/04/01 03:40:20;;;;;;;5.15;3.78;;;9.60;99.90;;;;;;5095081;28;20139;-82
2023/04/01 03:42:45;;;;;;;4.78;3.63;;;9.70;99.90;;;;;;5094614;28;20062;-82
2023/04/01 03:45:14;;;;;;;5.85;3.42;;;9.70;99.90;;;;;;5092448;28;20040;-83
2023/04/01 03:47:40;;;;;;;4.28;3.13;;;9.70;99.90;;;;;;5075463;28;20342;-84
2023/04/01 03:50:07;;;;;;;4.45;2.90;;;9.70;99.90;;;;;;5094803;28;20174;-82
2023/04/01 03:52:33;;;;;;;6.40;3.83;;;9.70;99.90;;;;;;5073540;28;20047;-82
2023/04/01 03:54:59;;;;;;;3.95;3.15;;;9.70;99.90;;;;;;5095014;28;20075;-82
2023/04/01 03:57:26;;;;;;;4.60;3.30;;;9.70;99.90;;;;;;5094386;28;20048;-81
2023/04/01 03:59:51;;;;;;;6.00;3.20;;;9.70;99.90;;;;;;5073414;28;20048;-81
2023/04/01 04:02:17;;;;;;;4.65;3.53;;;9.60;99.90;;;;;;5074468;28;20063;-81
2023/04/01 04:04:42;;;;;;;4.60;3.17;;;9.70;99.90;;;;;;5074710;28;20050;-81
2023/04/01 04:07:08;;;;;;;3.30;3.00;;;9.60;99.90;;;;;;5093731;28;20071;-81
2023/04/01 04:09:34;;;;;;;4.75;3.22;;;9.70;99.90;;;;;;5091669;28;20052;-81
2023/04/01 04:12:00;;;;;;;4.25;3.05;;;9.70;99.90;;;;;;5070304;28;20055;-81
2023/04/01 04:14:26;;;;;;;3.42;2.72;;;9.70;99.90;;;;;;5088111;28;20509;-81
2023/04/01 04:16:52;;;;;;;6.13;3.38;;;9.70;99.90;;;;;;5088695;28;20044;-81
2023/04/01 04:19:17;;;;;;;4.43;3.20;;;9.70;99.90;;;;;;5091346;28;20043;-81
2023/04/01 04:21:43;;;;;;;4.47;3.20;;;9.70;99.90;;;;;;5088674;28;20036;-81
2023/04/01 04:24:09;;;;;;;3.60;2.75;;;9.70;99.90;;;;;;5090759;28;20139;-81
2023/04/01 04:26:35;;;;;;;4.78;3.50;;;10.10;99.90;;;;;;5055042;28;20459;-81
2023/04/01 04:29:02;;;;;;;4.82;3.40;;;9.70;99.90;;;;;;5090757;28;20043;-81
2023/04/01 04:31:27;;;;;;;5.07;4.07;;;9.70;99.90;;;;;;5088477;28;20487;-81
2023/04/01 04:33:53;;;;;;;5.00;3.53;;;9.70;99.90;;;;;;5090144;28;20040;-82
2023/04/01 04:36:20;;;;;;;5.00;3.80;;;9.60;99.90;;;;;;5074314;28;20052;-81
2023/04/01 04:38:46;;;;;;;4.65;3.47;;;9.70;99.90;;;;;;5089924;28;20056;-83
2023/04/01 04:41:17;;;;;;;4.82;3.67;;;9.90;99.90;;;;;;5090400;28;20044;-82
2023/04/01 04:43:53;;;;;;;5.78;3.70;;;9.80;99.90;;;;;;5072898;28;20051;-82
2023/04/01 04:46:19;;;;;;;5.15;3.78;;;9.60;99.90;;;;;;5070111;28;21010;-82
2023/04/01 04:48:45;;;;;;;6.70;4.10;;;9.60;99.90;;;;;;5090516;28;20134;-82
2023/04/01 04:51:16;;;;;;;6.10;4.22;;;9.60;99.90;;;;;;5071755;28;20044;-82
2023/04/01 04:53:42;;;;;;;4.90;3.50;;;9.60;99.90;;;;;;5089545;28;20040;-82
2023/04/01 04:56:08;;;;;;;4.80;3.63;;;9.70;99.90;;;;;;5089271;28;20044;-84
2023/04/01 04:58:34;;;;;;;6.22;3.63;;;9.60;99.90;;;;;;5070471;28;20035;-84
2023/04/01 05:01:09;;;;;;;4.63;3.58;;;9.60;99.90;;;;;;5084520;28;20044;-83
2023/04/01 05:03:35;;;;;;;5.80;3.92;;;9.60;99.90;;;;;;5081063;28;20054;-83
2023/04/01 05:06:00;;;;;;;6.05;3.63;;;9.60;99.90;;;;;;5052275;28;20052;-84
2023/04/01 05:08:26;;;;;;;6.15;4.32;;;9.70;99.90;;;;;;5088639;28;20059;-83
2023/04/01 05:10:51;;;;;;;8.52;4.50;;;9.70;99.90;;;;;;5090029;28;20074;-84
2023/04/01 05:13:18;;;;;;;6.57;4.35;;;9.80;99.90;;;;;;5082727;28;20050;-83
2023/04/01 05:15:43;;;;;;;5.88;3.60;;;9.70;99.90;;;;;;5047142;28;20036;-84
2023/04/01 05:18:09;;;;;;;6.07;4.32;;;9.60;99.90;;;;;;5067938;28;20059;-85
2023/04/01 05:20:35;;;;;;;5.40;4.18;;;9.70;99.90;;;;;;5069785;28;20048;-84
2023/04/01 05:23:00;;;;;;;6.07;4.25;;;9.70;99.90;;;;;;5085998;28;20123;-85
2023/04/01 05:25:26;;;;;;;6.38;3.83;;;9.60;99.90;;;;;;5071627;28;20054;-85
2023/04/01 05:27:51;;;;;;;5.57;3.97;;;9.70;99.90;;;;;;5054827;28;20387;-85
2023/04/01 05:30:17;;;;;;;5.70;3.83;;;9.60;99.90;;;;;;5072022;28;20908;-85
2023/04/01 05:32:43;;;;;;;6.18;3.50;;;9.60;99.90;;;;;;5069929;28;20052;-86
2023/04/01 05:35:09;;;;;;;6.45;3.88;;;9.60;99.90;;;;;;5054370;28;20055;-86
2023/04/01 05:37:36;;;;;;;5.72;3.85;;;9.60;99.90;;;;;;5053520;28;20070;-85
2023/04/01 05:40:03;;;;;;;5.25;3.40;;;9.60;99.90;;;;;;5069020;28;20044;-84
2023/04/01 05:42:29;;;;;;;5.70;3.80;;;9.70;99.90;;;;;;5070882;28;20919;-84
2023/04/01 05:44:55;;;;;;;6.25;3.97;;;9.70;99.90;;;;;;5071612;28;20130;-84
2023/04/01 05:47:21;;;;;;;4.95;3.55;;;9.70;99.90;;;;;;5088918;28;20044;-83
2023/04/01 05:49:47;;;;;;;5.38;3.97;;;9.70;99.90;;;;;;5071556;28;20367;-84
2023/04/01 05:52:13;;;;;;;5.97;4.03;;;9.70;99.90;;;;;;5071718;28;20043;-83
2023/04/01 05:54:38;;;;;;;6.93;4.40;;;10.30;99.90;;;;;;5070757;28;20367;-86
2023/04/01 05:57:04;;;;;;;5.45;4.10;;;9.70;99.90;;;;;;5070006;28;20044;-85
2023/04/01 05:59:31;;;;;;;7.15;5.22;;;9.70;99.90;;;;;;5054247;28;20044;-85
2023/04/01 06:01:57;;;;;;;10.40;5.40;;;9.70;99.90;;;;;;5070195;28;20052;-84
2023/04/01 06:04:24;;;;;;;8.77;5.65;;;9.70;99.90;;;;;;5089093;28;20099;-85
2023/04/01 06:06:51;;;;;;;8.43;5.90;;;9.70;99.90;;;;;;5070449;28;20491;-85
2023/04/01 06:09:23;;;;;;;10.73;6.75;;;9.80;99.90;;;;;;5089509;28;20054;-85
2023/04/01 06:12:04;;;;;;;9.00;6.35;;;9.80;99.90;;;;;;5070344;28;20040;-84
2023/04/01 06:14:43;;;;;;;11.25;6.45;;;9.80;99.90;;;;;;5067822;28;20048;-86
2023/04/01 06:17:16;;;;;;;10.95;7.32;;;9.90;99.90;;;;;;5089602;28;20115;-85
2023/04/01 06:19:50;;;;;;;10.40;7.25;;;10.50;99.90;;;;;;5089841;28;20036;-85
2023/04/01 06:22:25;;;;;;;11.65;7.75;;;9.90;99.90;;;;;;5066653;28;20053;-84
2023/04/01 06:25:21;;;;;;;11.25;7.50;;;9.80;99.90;;;;;;5069705;28;20040;-84
2023/04/01 06:28:09;;;;;;;12.38;7.80;;;9.80;99.90;;;;;;5069018;28;20048;-85
2023/04/01 06:31:03;;;;;;;12.20;8.05;;;9.90;99.90;;;;;;5054273;28;20040;-85
2023/04/01 06:33:55;;;;;;;9.85;7.25;;;9.90;99.90;;;;;;5069074;28;20064;-85
2023/04/01 06:36:42;;;;;;;9.02;6.78;;;9.90;99.90;;;;;;5085838;28;20528;-82
2023/04/01 06:39:29;;;;;;;9.85;6.82;;;9.90;99.90;;;;;;5087290;28;20060;-83
2023/04/01 06:42:15;;;;;;;8.00;6.15;;;9.90;99.90;;;;;;5070345;28;20048;-85
2023/04/01 06:44:48;;;;;;;7.60;5.38;;;9.90;99.90;;;;;;5071777;28;20127;-86
2023/04/01 06:47:55;;;;;;;6.38;4.95;;;9.90;99.90;;;;;;5054406;28;20044;-83
2023/04/01 06:50:35;;;;;;;7.65;5.18;;;9.90;99.90;;;;;;5070548;28;20051;-85
2023/04/01 06:53:12;;;;;;;7.47;5.15;;;9.90;99.90;;;;;;5070258;28;20079;-83
2023/04/01 06:55:49;;;;;;;8.73;4.88;;;9.90;99.90;;;;;;5068882;28;20044;-84
2023/04/01 06:58:22;;;;;;;7.90;5.03;;;9.90;99.90;;;;;;5087206;28;20051;-84
2023/04/01 07:00:49;;;;;;;;;;;10.00;99.90;;;;;;5070467;28;20055;-84
2023/04/01 07:03:18;;;;;;;6.95;3.97;;;10.10;99.90;;;;;;5070622;28;19920;-85
2023/04/01 07:05:44;;;;;;;6.25;4.13;;;10.10;99.90;;;;;;5070406;28;20067;-84
2023/04/01 07:08:16;;;;;;;5.47;4.30;;;10.10;99.90;;;;;;5085618;28;20087;-85
2023/04/01 07:10:54;;;;;;;5.55;4.03;;;10.10;99.90;;;;;;5087784;28;20044;-84
2023/04/01 07:13:27;;;;;;;5.47;4.28;;;10.20;99.90;;;;;;5070436;28;20146;-84
2023/04/01 07:16:03;;;;;;;6.32;4.40;;;10.20;99.90;;;;;;5088882;28;20132;-83
2023/04/01 07:18:37;;;;;;;5.93;4.20;;;10.20;99.90;;;;;;5069445;28;20171;-84
2023/04/01 07:21:04;;;;;;;6.20;4.07;;;10.20;99.90;;;;;;5052923;28;20082;-83
2023/04/01 07:23:37;;;;;;;6.20;4.20;;;10.30;99.90;;;;;;5068007;28;20506;-85
2023/04/01 07:26:21;;;;;;;5.47;4.20;;;10.30;99.90;;;;;;5055820;28;20092;-84
2023/04/01 07:28:48;;;;;;;5.05;3.88;;;10.30;99.90;;;;;;5050735;28;20045;-84
2023/04/01 07:31:30;;;;;;;5.05;3.78;;;10.40;99.90;;;;;;5058848;28;20098;-85
2023/04/01 07:34:22;;;;;;;4.07;3.30;;;10.50;99.90;;;;;;5054096;28;20513;-84
2023/04/01 07:37:01;;;;;;;;;;;10.40;99.90;;;;;;5066735;28;20080;-84
2023/04/01 07:39:40;;;;;;;4.13;3.40;;;10.50;99.90;;;;;;5066336;28;19924;-85
2023/04/01 07:42:30;;;;;;;3.92;3.35;;;10.50;99.90;;;;;;5061600;28;20048;-84
2023/04/01 07:45:19;;;;;;;5.93;3.75;;;10.50;99.90;;;;;;5070147;28;20154;-86
2023/04/01 07:47:59;;;;;;;5.40;4.10;;;10.40;99.90;;;;;;5050822;28;20128;-86
2023/04/01 07:50:32;;;;;;;6.78;4.78;;;10.50;99.90;;;;;;5050721;28;20052;-82
2023/04/01 07:53:28;;;;;;;5.18;4.40;;;10.50;99.90;;;;;;5050927;28;20052;-82
2023/04/01 07:55:59;;;;;;;7.07;4.78;;;10.50;99.90;;;;;;5060590;28;20044;-84
2023/04/01 07:58:40;;;;;;;7.75;5.72;;;10.60;99.90;;;;;;5070022;28;20044;-85
2023/04/01 08:01:20;;;;;;;7.50;5.53;;;10.60;99.90;;;;;;5070524;28;20056;-84
2023/04/01 08:04:20;;;;;;;7.57;5.72;;;10.70;99.90;;;;;;5070492;28;20040;-82
2023/04/01 08:07:17;;;;;;;11.20;6.57;;;10.70;99.90;;;;;;5072256;28;20072;-82
2023/04/01 08:10:04;;;;;;;8.60;5.88;;;10.70;99.90;;;;;;5067128;28;20518;-82
2023/04/01 08:12:42;;;;;;;8.48;6.00;;;10.70;99.90;;;;;;5067886;28;20106;-82
2023/04/01 08:15:12;;;;;;;9.45;6.10;;;10.80;99.90;;;;;;5053255;28;20048;-82
2023/04/01 08:17:59;;;;;;;8.27;5.43;;;10.70;99.90;;;;;;5071204;28;20136;-82
2023/04/01 08:20:34;;;;;;;6.55;5.40;;;10.80;99.90;;;;;;5071611;28;20048;-82
2023/04/01 08:23:12;;;;;;;6.70;5.05;;;10.80;99.90;;;;;;5066746;28;20190;-82
2023/04/01 08:25:42;;;;;;;5.95;4.55;;;10.80;99.90;;;;;;5070568;28;20052;-82
2023/04/01 08:28:11;;;;;;;6.70;4.85;;;10.90;99.90;;;;;;5068474;28;20501;-84
2023/04/01 08:31:01;;;;;;;6.38;4.30;;;10.90;99.90;;;;;;5071273;28;20063;-83
2023/04/01 08:33:29;;;;;;;3.65;3.10;;;10.90;99.90;;;;;;5071175;28;20164;-84
2023/04/01 08:36:13;;;;;;;4.75;3.08;;;10.90;99.90;;;;;;5069835;28;20439;-83
2023/04/01 08:38:39;;;;;;;2.83;2.40;;;11.30;99.90;;;;;;5063624;28;20056;-84
2023/04/01 08:41:16;;;;;;;3.50;2.55;;;11.00;99.90;;;;;;5053451;28;20383;-85
2023/04/01 08:44:03;;;;;;;3.67;2.33;;;11.00;99.90;;;;;;5087604;28;20470;-86
2023/04/01 08:46:56;;;;;;;3.15;2.58;;;11.10;99.90;;;;;;5077002;28;20067;-84
2023/04/01 08:49:36;;;;;;;4.00;2.70;;;11.10;99.90;;;;;;5069094;28;20051;-82
2023/04/01 08:52:20;;;;;;;2.72;2.35;;;11.20;99.90;;;;;;5060806;28;20050;-81
2023/04/01 08:55:10;;;;;;;2.90;2.30;;;11.30;99.90;;;;;;5072602;28;20127;-81
2023/04/01 08:58:08;;;;;;;2.58;2.05;;;11.30;99.90;;;;;;5070253;28;20028;-84
2023/04/01 09:00:45;;;;;;;3.03;2.40;;;11.40;99.90;;;;;;5038742;28;20058;-83
2023/04/01 09:03:23;;;;;;;2.80;2.30;;;11.40;99.90;;;;;;5090760;28;20047;-83
2023/04/01 09:06:00;;;;;;;2.60;2.20;;;11.40;99.90;;;;;;5070972;28;20485;-81
2023/04/01 09:08:44;;;;;;;2.78;2.03;;;11.50;99.90;;;;;;5069476;28;20443;-81
2023/04/01 09:11:26;;;;;;;3.35;2.08;;;11.40;99.90;;;;;;5071421;28;20131;-82
2023/04/01 09:14:15;;;;;;;4.60;3.38;;;11.40;99.90;;;;;;5072582;28;20052;-82
2023/04/01 09:16:58;;;;;;;4.70;3.15;;;11.30;99.90;;;;;;5069218;28;20044;-81
2023/04/01 09:19:32;;;;;;;5.00;3.85;;;11.30;99.90;;;;;;5089729;28;20082;-82
2023/04/01 09:22:21;;;;;;;5.60;4.18;;;11.30;99.90;;;;;;5069882;28;20040;-81
2023/04/01 09:25:01;;;;;;;6.20;4.25;;;11.30;99.90;;;;;;5071745;28;20056;-81
2023/04/01 09:27:28;;;;;;;6.05;4.43;;;11.40;99.90;;;;;;5072293;28;20048;-82
2023/04/01 09:30:15;;;;;;;7.38;5.13;;;11.20;99.90;;;;;;5089989;28;20456;-82
2023/04/01 09:33:35;;;;;;;6.18;5.05;;;11.50;99.90;;;;;;5071051;28;20131;-82
2023/04/01 09:36:19;;;;;;;6.65;5.10;;;11.50;99.90;;;;;;5022213;28;20081;-82
2023/04/01 09:38:59;;;;;;;8.48;6.13;;;11.70;99.90;;;;;;5067164;28;20052;-82
2023/04/01 09:41:30;;;;;;;6.93;5.53;;;11.70;99.90;;;;;;5072044;28;20556;-81
2023/04/01 09:44:15;;;;;;;7.00;5.60;;;11.60;99.90;;;;;;5071817;28;20578;-82
2023/04/01 09:47:12;;;;;;;6.20;5.45;;;11.90;99.90;;;;;;5071186;28;20381;-82
2023/04/01 09:50:00;;;;;;;7.80;5.90;;;12.00;99.90;;;;;;5063795;28;20052;-81
2023/04/01 09:52:55;;;;;;;7.85;5.72;;;12.00;99.90;;;;;;5068889;28;20489;-82
2023/04/01 09:55:24;;;;;;;5.95;5.30;;;12.00;99.90;;;;;;5069473;28;20067;-83
2023/04/01 09:58:20;;;;;;;6.30;5.32;;;11.90;99.90;;;;;;5067270;28;20082;-82
2023/04/01 10:01:12;;;;;;;5.82;5.03;;;12.00;99.90;;;;;;5071709;28;20107;-82
2023/04/01 10:04:16;;;;;;;6.07;5.22;;;12.60;99.90;;;;;;5073475;28;20431;-82
2023/04/01 10:07:17;;;;;;;6.13;5.18;;;12.10;99.90;;;;;;5082401;28;20796;-82
2023/04/01 10:10:04;;;;;;;5.93;5.30;;;12.20;99.90;;;;;;5053868;28;20097;-81
2023/04/01 10:12:55;;;;;;;6.97;5.53;;;12.20;99.90;;;;;;5069453;28;20048;-82
2023/04/01 10:15:35;;;;;;;8.32;6.65;;;12.20;99.90;;;;;;5068115;28;20052;-83
2023/04/01 10:18:09;;;;;;;7.32;6.05;;;12.20;99.90;;;;;;5066447;28;20044;-83
2023/04/01 10:20:46;;;;;;;5.80;5.05;;;12.20;99.90;;;;;;5071258;28;20087;-82
2023/04/01 10:23:53;;;;;;;6.50;5.35;;;12.20;99.90;;;;;;5086239;28;20052;-82
2023/04/01 10:26:38;;;;;;;5.63;4.93;;;12.20;99.90;;;;;;5029726;28;20063;-82
2023/04/01 10:29:18;;;;;;;6.53;5.43;;;12.20;99.90;;;;;;5088157;28;20060;-83
2023/04/01 10:32:26;;;;;;;6.43;5.75;;;12.20;99.90;;;;;;5070708;28;20082;-82
2023/04/01 10:35:20;;;;;;;7.00;5.60;;;12.20;99.90;;;;;;5033123;28;20055;-81
2023/04/01 10:38:07;;;;;;;8.45;6.57;;;12.10;99.90;;;;;;5064921;28;20064;-82
2023/04/01 10:40:50;;;;;;;8.85;6.82;;;12.10;99.90;;;;;;5049116;28;20044;-82
2023/04/01 10:43:28;;;;;;;9.07;6.63;;;12.00;99.90;;;;;;5065384;28;20060;-82
2023/04/01 10:46:30;;;;;;;8.30;7.35;;;12.00;99.90;;;;;;5060612;28;20088;-82
2023/04/01 10:49:24;;;;;;;9.52;7.35;;;12.00;99.90;;;;;;5062043;28;20037;-82
2023/04/01 10:52:21;;;;;;;9.35;7.25;;;12.00;99.90;;;;;;5067561;28;20037;-82
2023/04/01 10:55:18;;;;;;;8.40;7.25;;;12.20;99.90;;;;;;5066714;28;20059;-82
2023/04/01 10:58:10;;;;;;;8.38;6.82;;;12.30;99.90;;;;;;5066613;28;20048;-82
2023/04/01 11:01:22;;;;;;;7.57;6.28;;;12.30;99.90;;;;;;5077933;28;20143;-83
2023/04/01 11:04:26;;;;;;;23.48;18.15;;;12.20;99.90;;;;;;5066294;28;20049;-81
2023/04/01 11:07:28;;;;;;;6.40;5.38;;;12.10;99.90;;;;;;5046968;28;20045;-81
2023/04/01 11:10:26;;;;;;;4.38;3.97;;;12.00;99.90;;;;;;5045530;28;20053;-81
2023/04/01 11:13:20;;;;;;;4.80;4.30;;;11.80;99.90;;;;;;5065195;28;20033;-81
2023/04/01 11:16:23;;;;;;;4.78;4.10;;;11.60;99.90;;;;;;5066265;28;20052;-81
2023/04/01 11:19:18;;;;;;;4.75;4.35;;;11.50;99.90;;;;;;5067390;28;20052;-81
2023/04/01 11:21:53;;;;;;;4.75;4.30;;;11.40;99.90;;;;;;5036185;28;20151;-81
2023/04/01 11:24:56;;;;;;;4.20;3.80;;;11.30;99.90;;;;;;5049557;28;20049;-81
2023/04/01 11:27:53;;;;;;;4.60;4.10;;;11.30;99.90;;;;;;4980353;28;20390;-81
2023/04/01 11:30:30;;;;;;;5.15;4.30;;;11.10;99.90;;;;;;5050185;28;20131;-82
2023/04/01 11:33:42;;;;;;;4.53;3.92;;;11.00;99.90;;;;;;5050950;28;20143;-82
2023/04/01 11:36:30;;;;;;;3.97;3.58;;;11.00;99.90;;;;;;5035526;28;20102;-82
2023/04/01 11:39:29;;;;;;;5.20;4.47;;;10.90;99.90;;;;;;5067515;28;20054;-82
2023/04/01 11:42:24;;;;;;;4.30;3.90;;;10.80;99.90;;;;;;5072782;28;20044;-83
2023/04/01 11:45:28;;;;;;;3.85;3.45;;;10.60;99.90;;;;;;5056253;28;20169;-83
2023/04/01 11:48:15;;;;;;;4.32;3.92;;;10.50;99.90;;;;;;5071941;28;20036;-82
2023/04/01 11:50:59;;;;;;;4.68;3.92;;;10.50;99.90;;;;;;5072737;28;20048;-82
2023/04/01 11:54:06;;;;;;;4.20;3.80;;;10.50;99.90;;;;;;5069759;28;20056;-82
2023/04/01 11:57:03;;;;;;;3.97;3.50;;;10.50;99.90;;;;;;5055510;28;20294;-82
2023/04/01 12:00:10;;;;;;;3.80;3.50;;;10.40;99.90;;;;;;5073040;28;20056;-82
2023/04/01 12:03:13;;;;;;;4.18;3.53;;;10.40;99.90;;;;;;5055055;28;20048;-82
2023/04/01 12:06:02;;;;;;;4.03;3.63;;;10.50;99.90;;;;;;5072766;28;20443;-83
2023/04/01 12:08:59;;;;;;;4.05;3.65;;;10.50;99.90;;;;;;5020802;28;20106;-82
2023/04/01 12:11:39;;;;;;;3.95;3.50;;;10.60;99.90;;;;;;5071674;28;20043;-82
2023/04/01 12:14:36;;;;;;;4.15;3.75;;;10.70;99.90;;;;;;5071333;28;20044;-83
2023/04/01 12:17:19;;;;;;;4.05;3.50;;;10.70;99.90;;;;;;5066957;28;20063;-83
2023/04/01 12:19:56;;;;;;;3.75;3.45;;;10.80;99.90;;;;;;5071699;28;20142;-83
2023/04/01 12:22:40;;;;;;;3.53;3.22;;;10.80;99.90;;;;;;5054943;28;20055;-82
2023/04/01 12:25:29;;;;;;;3.10;2.90;;;10.40;99.90;;;;;;5069331;28;20040;-83
2023/04/01 12:28:32;;;;;;;3.30;2.75;;;10.50;99.90;;;;;;5043726;28;20049;-82
2023/04/01 12:31:18;;;;;;;2.97;2.78;;;10.50;99.90;;;;;;5051552;28;20048;-82
2023/04/01 12:34:22;;;;;;;3.60;3.30;;;10.50;99.90;;;;;;5051175;28;20451;-83
2023/04/01 12:37:06;;;;;;;3.88;2.90;;;10.50;99.90;;;;;;5049674;28;20482;-83
2023/04/01 12:39:51;;;;;;;3.45;3.15;;;10.50;99.90;;;;;;5072267;28;20075;-83
2023/04/01 12:42:53;;;;;;;2.92;2.72;;;10.40;99.90;;;;;;5072078;28;20133;-82
2023/04/01 12:45:31;;;;;;;3.03;2.72;;;10.40;99.90;;;;;;5072286;28;20048;-82
2023/04/01 12:48:27;;;;;;;2.97;2.67;;;10.40;99.90;;;;;;5071710;28;20083;-82
2023/04/01 12:51:16;;;;;;;3.22;2.88;;;10.40;99.90;;;;;;5071591;28;20047;-82
2023/04/01 12:54:29;;;;;;;3.78;2.88;;;10.40;99.90;;;;;;5067665;28;20481;-82
2023/04/01 12:57:00;;;;;;;;;;;10.40;99.90;;;;;;5028347;28;20174;-82
2023/04/01 12:59:35;;;;;;;3.05;2.80;;;10.40;99.90;;;;;;5054014;28;19947;-82
2023/04/01 13:02:30;;;;;;;3.20;2.90;;;10.50;99.90;;;;;;5071370;28;20043;-82
2023/04/01 13:05:01;;;;;;;3.00;2.80;;;10.50;99.90;;;;;;5089770;28;20083;-82
2023/04/01 13:07:47;;;;;;;2.92;2.72;;;10.50;99.90;;;;;;5070734;28;20494;-82
2023/04/01 13:10:38;;;;;;;2.72;2.53;;;10.40;99.90;;;;;;5071381;28;20052;-82
2023/04/01 13:13:30;;;;;;;3.38;3.08;;;10.40;99.90;;;;;;5071589;28;20043;-82
2023/04/01 13:16:00;;;;;;;5.30;4.82;;;10.40;99.90;;;;;;5054342;28;20149;-82
2023/04/01 13:18:43;;;;;;;2.83;2.63;;;10.30;99.90;;;;;;5071194;28;20071;-82
2023/04/01 13:21:39;;;;;;;2.95;2.75;;;10.30;99.90;;;;;;5071795;28;20899;-82
2023/04/01 13:24:18;;;;;;;2.70;2.50;;;10.20;99.90;;;;;;5070523;28;20411;-82
2023/04/01 13:26:53;;;;;;;;;;;;;;;;;;;;;
2023/04/01 13:29:43;;;;;;;2.78;2.58;;;10.10;99.90;;;;;;5089094;28;20402;-82
2023/04/01 13:32:30;;;;;;;3.83;2.92;;;9.90;99.90;;;;;;5070329;28;20043;-82
2023/04/01 13:35:40;;;;;;;3.40;3.10;;;9.80;99.90;;;;;;5070107;28;20445;-84
2023/04/01 13:38:17;;;;;;;3.22;2.97;;;9.80;99.90;;;;;;5064578;28;20622;-85
2023/04/01 13:41:18;;;;;;;2.97;2.60;;;9.70;99.90;;;;;;5068542;28;20048;-84
2023/04/01 13:43:50;;;;;;;3.25;2.95;;;9.60;99.90;;;;;;5068821;28;20043;-84
2023/04/01 13:46:34;;;;;;;2.88;2.58;;;9.70;99.90;;;;;;5069450;28;20501;-84
2023/04/01 13:49:15;;;;;;;3.15;2.75;;;9.70;99.90;;;;;;5070804;28;20055;-84
2023/04/01 13:52:25;;;;;;;3.38;3.08;;;9.70;99.90;;;;;;5070284;28;20060;-84
2023/04/01 13:54:59;;;;;;;3.15;2.80;;;9.70;99.90;;;;;;5069916;28;20051;-83